DW7784 Le Mans FR current weather conditions

sailwx.info

Wind from 256 at 2 knots gusting 4

Air temperature 17.2° C
Dewpoint 16.6° C

Last reported at 2019-Jun-19 01:57 UTC.
Time now 2019-Jun-19 02:49 UTC

Location: N 48°11' W 000°06'.
View on Google Maps.

See reports from other nearby stations

  
Tides and Currents Weather Stations Pressure Air Temp Water Temp Dewpoint Dewpoint Depression Visibility Wind Speed Wind Dir Waves Ship Positions
date/time (UTC)wind fromknots sea level pressurealtimeterstation pressurevisibilityair tempwater tempwave heightnotes
2019-Jun-19 01:57 256 2 gusting 4 17.2
2019-Jun-19 01:47 252 1 gusting 3 17.2
2019-Jun-19 01:37 277 3 gusting 5 17.2
2019-Jun-19 01:27 261 3 gusting 4 17.2
2019-Jun-19 01:17 247 3 gusting 5 17.2
2019-Jun-19 01:07 247 3 gusting 5 17.2
2019-Jun-19 00:57 247 4 gusting 5
2019-Jun-19 00:47 266 3 gusting 3 17.8
2019-Jun-19 00:37 247 3 gusting 5 17.8
2019-Jun-19 00:27 242 2 gusting 3 17.8
2019-Jun-19 00:17 243 2 gusting 3 17.8
2019-Jun-19 00:07 243 2 gusting 4 17.8
2019-Jun-18 23:57 255 1 gusting 2 17.8
2019-Jun-18 23:47 247 1 gusting 2 17.8
2019-Jun-18 23:37 247 2 gusting 3 17.8
2019-Jun-18 23:27 286 3 gusting 3 17.8
2019-Jun-18 23:17 283 2 gusting 2 17.8
2019-Jun-18 23:07 272 0 gusting 1 17.8
2019-Jun-18 22:57 270 1 gusting 1
2019-Jun-18 22:47 242 1 gusting 2 17.8
2019-Jun-18 22:37 247 2 gusting 3 17.8
2019-Jun-18 22:27 251 1 gusting 2 17.8
2019-Jun-18 22:17 247 0 gusting 0 18.3
2019-Jun-18 22:07 243 1 gusting 1 18.3
2019-Jun-18 21:57 18.3
2019-Jun-18 21:47 180 18.9
2019-Jun-18 21:37 19.4
2019-Jun-18 21:07 20.6
2019-Jun-18 20:57 202 0 gusting 0 20.6
2019-Jun-18 20:47 225
2019-Jun-18 20:37 20.6
2019-Jun-18 20:27 21.1
2019-Jun-18 20:17
2019-Jun-18 20:07 243 1 gusting 5 20.6
2019-Jun-18 19:57 180 21.1
2019-Jun-18 19:47 21.1
2019-Jun-18 19:37 045 0 gusting 0 21.7
2019-Jun-18 19:27 21.7
2019-Jun-18 19:17 22.2
2019-Jun-18 19:07 045
2019-Jun-18 18:57 067 0 gusting 0 23.9
2019-Jun-18 18:47 090 1 gusting 2 24.4
2019-Jun-18 18:37 105 2 gusting 3 25.0
2019-Jun-18 18:27 112 3 gusting 3 25.6
2019-Jun-18 18:17 090 3 gusting 3 25.6
2019-Jun-18 18:07 127 2 gusting 3 26.1
2019-Jun-18 17:57 145 1 gusting 2
2019-Jun-18 17:47 117 1 gusting 2 26.7
2019-Jun-18 17:37 157 2 gusting 6 26.7
2019-Jun-18 17:27 123 5 gusting 5 26.7
2019-Jun-18 17:17 123 5 gusting 6 27.2
2019-Jun-18 17:07 127 3 gusting 8 26.7
2019-Jun-18 16:57 122 6 gusting 6 27.2
2019-Jun-18 16:47 186 2 gusting 6 27.2
2019-Jun-18 16:37 168 4 gusting 6 27.2
2019-Jun-18 16:27 095 5 gusting 5 27.2
2019-Jun-18 16:17 115 3 gusting 4 27.8
2019-Jun-18 16:07 135 4 gusting 4
2019-Jun-18 15:57 135 4 gusting 4 27.8
2019-Jun-18 15:47 157 6 gusting 8 27.8
2019-Jun-18 15:37 157 6 gusting 6 28.3
2019-Jun-18 15:27 135 4 gusting 8 28.9
2019-Jun-18 15:17 140 6 gusting 7 29.4
2019-Jun-18 15:07 153 6 gusting 10 29.4
2019-Jun-18 14:57 145 5 gusting 7 29.4
2019-Jun-18 14:47 123 3 gusting 5 28.9
2019-Jun-18 14:37 140 3 gusting 6 28.9
2019-Jun-18 14:27 085 6 gusting 10 28.9
2019-Jun-18 14:17 098 4 gusting 6 28.3
2019-Jun-18 14:07 079 5 gusting 5 28.3
2019-Jun-18 13:57 072 3 gusting 3 27.8
2019-Jun-18 13:47 095 4 gusting 5 27.8
2019-Jun-18 13:37 099 3 gusting 5 28.3
2019-Jun-18 13:27 089 4 gusting 4 26.7
2019-Jun-18 13:17 068 5 gusting 7 26.7
2019-Jun-18 13:07 080 6 gusting 6 26.7
2019-Jun-18 12:57 072 6 gusting 6 27.2
2019-Jun-18 12:47 090 2 gusting 2 26.1
2019-Jun-18 12:37 052 6 gusting 6 26.1
2019-Jun-18 12:27 058 2 gusting 3 25.6
2019-Jun-18 12:17 081 3 gusting 5 24.4
2019-Jun-18 12:07 061 3 gusting 4 23.9
2019-Jun-18 11:57 067 2 gusting 2 23.3
2019-Jun-18 11:47 017 0 gusting 3
2019-Jun-18 11:37 095 1 gusting 1 22.8
2019-Jun-18 11:27 076 4 gusting 5
2019-Jun-18 11:17 090 5 gusting 6 22.8
2019-Jun-18 11:07 067 5 gusting 5 23.3
2019-Jun-18 10:57 123 4 gusting 4
2019-Jun-18 10:47 087 4 gusting 4 23.9
2019-Jun-18 10:37 074 4 gusting 4
2019-Jun-18 10:27 097 6 gusting 6 22.8
2019-Jun-18 10:17 092 4 gusting 6 22.2
2019-Jun-18 10:07 089 5 gusting 6 21.7
2019-Jun-18 09:57 076 6 gusting 6 21.7
2019-Jun-18 09:47 078 5 gusting 7 21.7
2019-Jun-18 09:37 067 4 gusting 6 21.1
2019-Jun-18 09:27 082 4 gusting 6 20.6
2019-Jun-18 09:17 064 3 gusting 4 20.0
2019-Jun-18 09:07 067 4 gusting 6 19.4
2019-Jun-18 08:57 085 3 gusting 4 19.4
2019-Jun-18 08:47 060 2 gusting 4
2019-Jun-18 08:37 064 3 gusting 3 18.9
2019-Jun-18 08:27 070 4 gusting 5 18.9
2019-Jun-18 08:17 063 2 gusting 5 18.3
2019-Jun-18 08:07 078 2 gusting 2 18.3
2019-Jun-18 07:57 081 2 gusting 5 18.3
2019-Jun-18 07:47 072 3 gusting 4 18.9
2019-Jun-18 07:37 079 4 gusting 6
2019-Jun-18 07:27 076 2 gusting 3 17.8
2019-Jun-18 07:17 061 2 gusting 3 17.8
2019-Jun-18 07:07 080 1 gusting 5 17.8
2019-Jun-18 06:57 067 2 gusting 5 17.8
2019-Jun-18 06:47 074 2 gusting 4 17.8
2019-Jun-18 06:37 078 3 gusting 6 17.2
2019-Jun-18 06:27 083 1 gusting 3
2019-Jun-18 06:17 045 2 gusting 2
2019-Jun-18 06:07 056 2 gusting 4 17.2
2019-Jun-18 05:57 086 1 gusting 3
2019-Jun-18 05:50 045 3 gusting 3 16.7
2019-Jun-18 05:40 064 1 gusting 3 16.7
2019-Jun-18 05:30 067 1 gusting 2 16.7
2019-Jun-18 05:20 060 0 gusting 1 16.7
2019-Jun-18 05:10 067 2 gusting 2 16.1
2019-Jun-18 05:00 048 1 gusting 2 16.1
2019-Jun-18 04:50 073 1 gusting 1 16.1
2019-Jun-18 04:40 029 1 gusting 2 16.1
2019-Jun-18 04:30 067 1 gusting 3 15.6
2019-Jun-18 04:20 049 2 gusting 3 16.1
2019-Jun-18 04:10 067 1 gusting 3 16.1
2019-Jun-18 04:00 067 2 gusting 5 16.1
2019-Jun-18 03:50 067 3 gusting 3 16.1
2019-Jun-18 03:40 050 3 gusting 6 15.6
2019-Jun-18 03:30 082 2 gusting 3
2019-Jun-18 03:20 061 2 gusting 4 15.6
2019-Jun-18 03:10 058 2 gusting 3 16.1
2019-Jun-18 03:00 075 2 gusting 4 16.1
2019-Jun-18 02:50 042 4 gusting 5 16.1
2019-Jun-18 02:40 067 3 gusting 3 16.1
2019-Jun-18 02:30 050 2 gusting 2 16.1
2019-Jun-18 02:20 076 3 gusting 4 16.1
2019-Jun-18 02:10 021 3 gusting 6
2019-Jun-18 02:00 067 4 gusting 5 16.1
2019-Jun-18 01:50 063 3 gusting 4
2019-Jun-18 01:40 076 3 gusting 4 16.1
2019-Jun-18 01:30 056 3 gusting 3
2019-Jun-18 01:20 043 1 gusting 5 16.1
2019-Jun-18 01:10 012 2 gusting 4 16.7
2019-Jun-18 01:00 012 2 gusting 5 16.7
2019-Jun-18 00:50 035 2 gusting 3 16.7
2019-Jun-18 00:40 049 3 gusting 4 16.7
2019-Jun-18 00:30 021 3 gusting 5
2019-Jun-18 00:20 053 3 gusting 4 16.1
2019-Jun-18 00:10 073 3 gusting 4 16.1
2019-Jun-18 00:00 039 3 gusting 4 16.7
2019-Jun-17 23:50 067 2 gusting 4
2019-Jun-17 23:40 040 2 gusting 3 16.7
2019-Jun-17 23:30 080 0 gusting 3 16.7
2019-Jun-17 23:20 099 3 gusting 3
2019-Jun-17 23:10 022 2 gusting 3
2019-Jun-17 23:00 007 2 gusting 3 17.2
2019-Jun-17 22:50 095 1 gusting 2 17.2
2019-Jun-17 22:40 17.2
2019-Jun-17 22:30 060 0 gusting 5 17.2
2019-Jun-17 22:20 036 4 gusting 6 17.8
2019-Jun-17 22:10 023 3 gusting 5 17.8
2019-Jun-17 22:00 344 3 gusting 6
2019-Jun-17 21:50 008 3 gusting 4 18.3
2019-Jun-17 21:40 049 2 gusting 2 18.3
2019-Jun-17 21:30 031 1 gusting 3 18.9
2019-Jun-17 21:20 354 2 gusting 5 18.9
2019-Jun-17 21:10 011 3 gusting 4 18.3
2019-Jun-17 21:00 039 1 gusting 1 17.8
2019-Jun-17 20:50 045 1 gusting 2 17.8
2019-Jun-17 20:40 067 2 gusting 2 17.8
2019-Jun-17 20:30 18.3
2019-Jun-17 20:20 015 1 gusting 2 18.3
2019-Jun-17 20:10 022 0 gusting 1 18.9
2019-Jun-17 20:00 337 0 gusting 1 19.4
2019-Jun-17 19:50 315 1 gusting 1
2019-Jun-17 19:40 011 0 gusting 1 20.0
2019-Jun-17 19:30 20.6
2019-Jun-17 19:20 031 0 gusting 1 20.6
2019-Jun-17 19:10 022 0 gusting 1 21.1
2019-Jun-17 19:00 21.7
2019-Jun-17 18:50 022 0 gusting 1 22.2
2019-Jun-17 18:40 022
2019-Jun-17 18:30 22.8